Time;durP1;ratioP1;P1;durP2;ratioP2;P2;SDS_P1;SDS_P2;PMS_P1;PMS_P2;Temp;Humidity;BMP_temperature;BMP_pressure;BME280_temperature;BME280_humidity;BME280_pressure;Samples;Min_cycle;Max_cycle;Signal;HPM_P1;HPM_P2
2021/12/04 00:01:40;;;;;;;8.18;7.30;;;;;;;;;;4978066;28;24511;-59
2021/12/04 00:04:05;;;;;;;8.93;7.82;;;;;;;;;;4985538;28;24420;-58
2021/12/04 00:06:36;;;;;;;8.02;7.32;;;;;;;;;;4986198;28;24424;-58
2021/12/04 00:09:04;;;;;;;9.00;8.10;;;;;;;;;;4979693;28;24475;-59
2021/12/04 00:11:30;;;;;;;8.77;7.97;;;;;;;;;;4980005;28;24552;-58
2021/12/04 00:13:55;;;;;;;9.27;8.37;;;;;;;;;;4981622;28;24923;-58
2021/12/04 00:16:20;;;;;;;9.77;8.77;;;;;;;;;;4982866;28;24431;-59
2021/12/04 00:18:45;;;;;;;9.70;8.80;;;;;;;;;;4983581;28;24441;-58
2021/12/04 00:21:10;;;;;;;9.40;8.50;;;;;;;;;;4977921;28;24420;-59
2021/12/04 00:23:36;;;;;;;10.30;8.83;;;;;;;;;;4984032;28;24410;-59
2021/12/04 00:26:01;;;;;;;8.80;8.00;;;;;;;;;;4981820;28;25060;-58
2021/12/04 00:28:26;;;;;;;8.57;7.77;;;;;;;;;;4991051;28;25194;-58
2021/12/04 00:30:51;;;;;;;8.53;7.83;;;;;;;;;;4977121;28;24490;-59
2021/12/04 00:33:22;;;;;;;10.00;9.00;;;;;;;;;;4979587;28;25148;-59
2021/12/04 00:35:52;;;;;;;9.70;8.80;;;;;;;;;;4981307;28;24543;-58
2021/12/04 00:49:11;;;;;;;9.53;8.60;;;;;;;;;;4987399;28;24514;-59
2021/12/04 00:51:38;;;;;;;9.15;8.27;;;;;;;;;;4979274;28;24453;-59
2021/12/04 00:54:05;;;;;;;10.75;9.38;;;;;;;;;;4983200;28;24401;-59
2021/12/04 00:56:31;;;;;;;10.73;9.68;;;;;;;;;;4982488;28;24453;-58
2021/12/04 00:58:56;;;;;;;9.33;8.47;;;;;;;;;;4980869;28;25057;-59
2021/12/04 01:01:21;;;;;;;9.97;9.03;;;;;;;;;;4977318;28;24413;-59
2021/12/04 01:03:46;;;;;;;9.90;8.90;;;;;;;;;;4980897;28;24500;-60
2021/12/04 01:06:12;;;;;;;10.63;9.53;;;;;;;;;;4985250;28;24571;-60
2021/12/04 01:08:37;;;;;;;10.05;9.00;;;;;;;;;;4982822;28;24748;-59
2021/12/04 01:11:03;;;;;;;9.20;8.10;;;;;;;;;;4981202;28;24576;-59
2021/12/04 01:13:28;;;;;;;9.07;8.27;;;;;;;;;;4981123;28;24481;-60
2021/12/04 01:15:54;;;;;;;10.00;9.10;;;;;;;;;;4979471;28;24512;-60
2021/12/04 01:18:19;;;;;;;8.45;7.65;;;;;;;;;;4982081;28;25267;-60
2021/12/04 01:20:44;;;;;;;9.20;8.30;;;;;;;;;;4981744;28;24396;-59
2021/12/04 01:23:09;;;;;;;8.43;7.63;;;;;;;;;;4980377;28;24796;-59
2021/12/04 01:25:39;;;;;;;9.55;8.65;;;;;;;;;;4977487;28;24504;-59
2021/12/04 01:28:04;;;;;;;8.30;7.50;;;;;;;;;;4981935;28;24414;-58
2021/12/04 01:30:30;;;;;;;8.13;7.40;;;;;;;;;;4982721;28;24648;-59
2021/12/04 01:32:55;;;;;;;7.70;6.90;;;;;;;;;;4976838;28;24424;-59
2021/12/04 01:35:20;;;;;;;7.20;6.60;;;;;;;;;;4979455;28;24409;-58
2021/12/04 01:37:45;;;;;;;7.00;6.30;;;;;;;;;;4979016;28;24433;-58
2021/12/04 01:40:10;;;;;;;8.03;7.23;;;;;;;;;;4982510;28;24433;-58
2021/12/04 01:42:36;;;;;;;8.43;7.70;;;;;;;;;;4981800;28;24488;-58
2021/12/04 01:45:02;;;;;;;7.63;6.82;;;;;;;;;;4979783;28;24772;-58
2021/12/04 01:47:28;;;;;;;7.97;7.27;;;;;;;;;;4980789;28;24503;-58
2021/12/04 01:49:54;;;;;;;7.40;6.80;;;;;;;;;;5004235;28;24455;-58
2021/12/04 01:52:20;;;;;;;9.63;7.30;;;;;;;;;;4992209;28;24459;-58
2021/12/04 01:54:46;;;;;;;8.20;7.40;;;;;;;;;;4983041;28;24816;-59
2021/12/04 01:57:12;;;;;;;10.38;8.00;;;;;;;;;;4982090;28;25056;-59
2021/12/04 01:59:37;;;;;;;9.20;8.40;;;;;;;;;;4984540;28;24417;-59
2021/12/04 02:02:03;;;;;;;9.00;8.20;;;;;;;;;;4983570;28;24508;-60
2021/12/04 02:04:28;;;;;;;9.07;8.17;;;;;;;;;;4985507;28;24736;-58
2021/12/04 02:06:53;;;;;;;9.10;8.20;;;;;;;;;;4982383;28;24481;-59
2021/12/04 02:09:18;;;;;;;9.10;8.20;;;;;;;;;;4982231;28;24798;-58
2021/12/04 02:11:43;;;;;;;9.13;8.23;;;;;;;;;;4985886;28;24432;-58
2021/12/04 02:14:08;;;;;;;7.83;7.13;;;;;;;;;;4984014;28;25457;-58
2021/12/04 02:16:33;;;;;;;8.32;7.57;;;;;;;;;;4992285;28;24436;-59
2021/12/04 02:18:59;;;;;;;8.30;7.50;;;;;;;;;;4987222;28;24958;-59
2021/12/04 02:21:26;;;;;;;7.63;6.93;;;;;;;;;;4983439;28;24400;-59
2021/12/04 02:23:52;;;;;;;8.57;7.78;;;;;;;;;;4985215;28;24516;-59
2021/12/04 02:26:17;;;;;;;8.13;7.35;;;;;;;;;;4996374;28;24409;-59
2021/12/04 02:28:44;;;;;;;9.00;7.40;;;;;;;;;;4987047;28;24408;-59
2021/12/04 02:31:09;;;;;;;7.90;7.20;;;;;;;;;;4993976;28;24420;-59
2021/12/04 02:33:34;;;;;;;7.73;7.03;;;;;;;;;;4983559;28;24456;-59
2021/12/04 02:36:02;;;;;;;8.15;7.35;;;;;;;;;;4985432;28;25159;-59
2021/12/04 02:38:27;;;;;;;6.93;6.30;;;;;;;;;;4985006;28;24432;-59
2021/12/04 02:40:54;;;;;;;7.37;6.77;;;;;;;;;;4982587;28;24418;-59
2021/12/04 02:43:19;;;;;;;6.80;6.20;;;;;;;;;;4981286;28;24512;-59
2021/12/04 02:45:45;;;;;;;7.53;6.77;;;;;;;;;;4982981;28;24653;-60
2021/12/04 02:48:11;;;;;;;7.77;6.97;;;;;;;;;;4989859;28;24545;-60
2021/12/04 02:50:36;;;;;;;7.45;6.75;;;;;;;;;;4990299;28;24424;-61
2021/12/04 02:53:01;;;;;;;8.07;7.27;;;;;;;;;;4981554;28;24432;-60
2021/12/04 02:55:26;;;;;;;8.00;7.20;;;;;;;;;;4985276;28;25003;-58
2021/12/04 02:57:52;;;;;;;8.30;7.60;;;;;;;;;;4981003;28;24444;-58
2021/12/04 03:00:22;;;;;;;7.60;6.90;;;;;;;;;;4979029;28;24409;-59
2021/12/04 03:02:48;;;;;;;7.72;7.03;;;;;;;;;;4979365;28;24413;-59
2021/12/04 03:05:13;;;;;;;8.10;7.30;;;;;;;;;;4984254;28;24471;-59
2021/12/04 03:07:39;;;;;;;8.47;7.77;;;;;;;;;;4983938;28;24432;-58
2021/12/04 03:10:06;;;;;;;9.10;8.20;;;;;;;;;;4981547;28;24428;-58
2021/12/04 03:12:32;;;;;;;8.60;7.80;;;;;;;;;;4977759;28;24440;-58
2021/12/04 03:14:57;;;;;;;9.68;8.68;;;;;;;;;;4984649;28;24975;-58
2021/12/04 03:17:23;;;;;;;9.90;8.90;;;;;;;;;;4986070;28;24740;-58
2021/12/04 03:19:50;;;;;;;9.55;8.65;;;;;;;;;;4983382;28;24448;-58
2021/12/04 03:22:15;;;;;;;8.95;8.05;;;;;;;;;;4981604;28;24417;-58
2021/12/04 03:24:42;;;;;;;8.70;7.90;;;;;;;;;;4980031;28;24413;-58
2021/12/04 03:27:07;;;;;;;8.80;8.00;;;;;;;;;;4984488;28;24548;-58
2021/12/04 03:29:39;;;;;;;8.50;7.70;;;;;;;;;;4995126;28;24602;-58
2021/12/04 03:43:00;;;;;;;9.10;8.20;;;;;;;;;;4975729;28;24444;-58
2021/12/04 03:45:26;;;;;;;8.55;7.85;;;;;;;;;;4986035;28;25061;-58
2021/12/04 03:47:53;;;;;;;9.70;8.80;;;;;;;;;;4980066;28;24424;-58
2021/12/04 03:50:18;;;;;;;9.68;8.68;;;;;;;;;;4984574;28;24712;-58
2021/12/04 03:52:44;;;;;;;10.00;9.10;;;;;;;;;;4981564;28;24491;-58
2021/12/04 03:55:09;;;;;;;9.20;8.30;;;;;;;;;;4971051;28;24453;-58
2021/12/04 03:57:35;;;;;;;10.00;9.00;;;;;;;;;;4978350;28;24452;-58
2021/12/04 04:00:01;;;;;;;8.85;7.90;;;;;;;;;;4981853;28;24440;-58
2021/12/04 04:02:26;;;;;;;9.38;8.40;;;;;;;;;;4975949;28;24437;-58
2021/12/04 04:04:52;;;;;;;9.85;8.95;;;;;;;;;;4976060;28;24431;-58
2021/12/04 04:07:17;;;;;;;8.80;7.90;;;;;;;;;;4987778;28;24523;-58
2021/12/04 04:09:42;;;;;;;8.57;7.67;;;;;;;;;;4986858;28;24467;-58
2021/12/04 04:12:07;;;;;;;9.73;8.77;;;;;;;;;;4987210;28;24519;-58
2021/12/04 04:14:33;;;;;;;8.63;7.73;;;;;;;;;;4994680;28;24967;-59
2021/12/04 04:16:58;;;;;;;8.20;7.40;;;;;;;;;;4979481;28;24499;-58
2021/12/04 04:19:24;;;;;;;9.07;8.17;;;;;;;;;;4979580;28;24451;-58
2021/12/04 04:21:53;;;;;;;8.68;7.88;;;;;;;;;;4982077;28;24453;-60
2021/12/04 04:24:18;;;;;;;8.80;7.90;;;;;;;;;;4983977;28;24385;-59
2021/12/04 04:26:44;;;;;;;8.60;7.70;;;;;;;;;;4979357;28;24419;-61
2021/12/04 04:29:10;;;;;;;8.63;7.60;;;;;;;;;;4979846;28;24467;-59
2021/12/04 04:31:36;;;;;;;8.43;7.63;;;;;;;;;;4983881;28;24479;-59
2021/12/04 04:34:05;;;;;;;8.00;7.20;;;;;;;;;;4981034;28;24461;-59
2021/12/04 04:58:23;;;;;;;7.68;6.97;;;;;;;;;;4982591;28;24440;-59
2021/12/04 05:01:16;;;;;;;8.43;7.63;;;;;;;;;;4976133;28;24472;-59
2021/12/04 05:12:22;;;;;;;9.15;8.27;;;;;;;;;;4937205;28;24468;-60
2021/12/04 05:14:53;;;;;;;8.88;7.97;;;;;;;;;;4971759;28;24929;-59
2021/12/04 05:17:52;;;;;;;9.43;8.43;;;;;;;;;;4980947;28;24900;-60
2021/12/04 05:20:32;;;;;;;10.60;9.60;;;;;;;;;;4982335;28;24452;-59
2021/12/04 05:22:58;;;;;;;8.90;8.00;;;;;;;;;;4974866;28;24425;-59
2021/12/04 05:25:23;;;;;;;9.20;8.40;;;;;;;;;;4983352;28;24452;-59
2021/12/04 05:27:48;;;;;;;9.30;8.40;;;;;;;;;;4983330;28;24428;-59
2021/12/04 05:30:13;;;;;;;9.43;8.47;;;;;;;;;;4986204;28;24451;-60
2021/12/04 05:32:39;;;;;;;10.47;8.40;;;;;;;;;;4983724;28;24424;-60
2021/12/04 05:35:04;;;;;;;9.03;8.13;;;;;;;;;;4986320;28;24412;-59
2021/12/04 05:37:29;;;;;;;9.43;8.52;;;;;;;;;;4987029;28;24444;-59
2021/12/04 05:39:54;;;;;;;11.27;8.77;;;;;;;;;;4983002;28;24417;-60
2021/12/04 05:42:20;;;;;;;9.36;8.52;;;;;;;;;;4984732;28;24425;-60
2021/12/04 05:44:45;;;;;;;9.93;8.93;;;;;;;;;;4987002;28;24998;-59
2021/12/04 05:47:27;;;;;;;9.57;8.73;;;;;;;;;;4995663;28;24428;-59
2021/12/04 05:50:19;;;;;;;9.70;8.80;;;;;;;;;;4979778;28;24413;-59
2021/12/04 05:55:20;;;;;;;10.18;9.10;;;;;;;;;;4986204;28;24471;-59
2021/12/04 05:57:45;;;;;;;10.80;9.70;;;;;;;;;;4982166;28;24445;-59
2021/12/04 06:00:15;;;;;;;11.57;10.37;;;;;;;;;;4982202;28;24471;-59
2021/12/04 06:02:40;;;;;;;12.83;11.53;;;;;;;;;;4982584;28;24441;-59
2021/12/04 06:05:06;;;;;;;11.67;9.90;;;;;;;;;;4983926;28;24564;-59
2021/12/04 06:07:31;;;;;;;11.30;10.20;;;;;;;;;;4986300;28;24417;-59
2021/12/04 06:09:56;;;;;;;10.18;9.18;;;;;;;;;;4982444;28;24512;-60
2021/12/04 06:12:21;;;;;;;11.67;10.47;;;;;;;;;;4990001;28;24763;-59
2021/12/04 06:14:48;;;;;;;11.93;10.73;;;;;;;;;;4985306;28;24515;-59
2021/12/04 06:17:14;;;;;;;12.48;11.27;;;;;;;;;;4984138;28;24455;-59
2021/12/04 06:22:40;;;;;;;12.10;10.80;;;;;;;;;;4978560;28;24400;-60
2021/12/04 06:25:06;;;;;;;11.60;10.40;;;;;;;;;;4981288;28;25155;-60
2021/12/04 06:27:32;;;;;;;12.02;10.82;;;;;;;;;;4986204;28;24419;-60
2021/12/04 06:29:57;;;;;;;11.60;10.40;;;;;;;;;;4984466;28;24959;-60
2021/12/04 06:32:22;;;;;;;13.60;12.20;;;;;;;;;;4990121;28;24974;-60
2021/12/04 06:34:47;;;;;;;10.90;9.90;;;;;;;;;;5000738;28;24428;-59
2021/12/04 06:37:12;;;;;;;12.18;11.07;;;;;;;;;;4981256;28;24435;-60
2021/12/04 06:39:37;;;;;;;12.07;10.97;;;;;;;;;;4985123;28;24465;-59
2021/12/04 06:42:03;;;;;;;11.25;10.18;;;;;;;;;;4983773;28;24962;-60
2021/12/04 06:44:28;;;;;;;10.70;9.80;;;;;;;;;;4982501;28;24428;-60
2021/12/04 06:46:54;;;;;;;11.43;10.27;;;;;;;;;;4989213;28;24850;-60
2021/12/04 06:49:27;;;;;;;10.60;9.60;;;;;;;;;;5003393;28;24451;-60
2021/12/04 06:51:56;;;;;;;10.63;9.63;;;;;;;;;;4989348;28;24479;-60
2021/12/04 06:54:25;;;;;;;10.57;9.68;;;;;;;;;;4969239;28;24420;-61
2021/12/04 06:56:51;;;;;;;10.30;9.40;;;;;;;;;;4983254;28;25054;-60
2021/12/04 06:59:22;;;;;;;8.63;7.83;;;;;;;;;;4988607;28;24425;-60
2021/12/04 07:01:47;;;;;;;9.15;7.53;;;;;;;;;;4995033;28;24443;-61
2021/12/04 07:04:15;;;;;;;8.40;7.70;;;;;;;;;;4982412;28;24574;-61
2021/12/04 07:06:40;;;;;;;7.70;7.10;;;;;;;;;;4983416;28;24417;-61
2021/12/04 07:09:06;;;;;;;7.50;6.90;;;;;;;;;;4984390;28;24500;-61
2021/12/04 07:11:31;;;;;;;8.30;7.60;;;;;;;;;;4981484;28;24863;-61
2021/12/04 07:13:57;;;;;;;9.52;8.63;;;;;;;;;;4981075;28;24427;-61
2021/12/04 07:16:23;;;;;;;9.00;8.20;;;;;;;;;;4980779;28;25230;-62
2021/12/04 07:18:48;;;;;;;8.65;7.85;;;;;;;;;;4984265;28;24476;-61
2021/12/04 07:21:13;;;;;;;8.07;7.37;;;;;;;;;;4987394;28;24471;-61
2021/12/04 07:23:39;;;;;;;9.70;8.80;;;;;;;;;;4990655;28;24732;-61
2021/12/04 07:26:04;;;;;;;9.90;8.90;;;;;;;;;;4988767;28;24527;-61
2021/12/04 07:28:30;;;;;;;9.27;8.47;;;;;;;;;;4980162;28;24565;-61
2021/12/04 07:30:55;;;;;;;9.47;8.67;;;;;;;;;;4983309;28;24424;-61
2021/12/04 07:33:20;;;;;;;10.67;9.77;;;;;;;;;;4987102;28;24552;-62
2021/12/04 07:35:45;;;;;;;10.17;9.27;;;;;;;;;;4984183;28;24530;-61
2021/12/04 07:38:11;;;;;;;8.80;8.07;;;;;;;;;;4976091;28;24428;-60
2021/12/04 07:40:39;;;;;;;9.70;8.80;;;;;;;;;;4981006;28;24428;-61
2021/12/04 07:43:05;;;;;;;9.27;8.38;;;;;;;;;;4978200;28;24513;-61
2021/12/04 07:45:30;;;;;;;9.10;8.30;;;;;;;;;;4982239;28;24516;-60
2021/12/04 07:47:55;;;;;;;9.00;8.30;;;;;;;;;;4984452;28;24548;-60
2021/12/04 07:50:20;;;;;;;9.05;8.15;;;;;;;;;;4980960;28;24427;-60
2021/12/04 07:52:46;;;;;;;9.73;8.83;;;;;;;;;;4989169;28;24480;-60
2021/12/04 07:55:11;;;;;;;10.07;9.07;;;;;;;;;;4980906;28;24419;-60
2021/12/04 07:57:36;;;;;;;9.15;8.25;;;;;;;;;;4978399;28;25066;-62
2021/12/04 08:00:07;;;;;;;10.23;9.33;;;;;;;;;;4980547;28;24516;-61
2021/12/04 08:02:32;;;;;;;9.45;8.55;;;;;;;;;;4987481;28;24408;-61
2021/12/04 08:04:57;;;;;;;8.40;7.70;;;;;;;;;;4984154;28;24960;-61
2021/12/04 08:07:22;;;;;;;8.90;8.10;;;;;;;;;;4979477;28;24427;-61
2021/12/04 08:09:47;;;;;;;11.03;9.83;;;;;;;;;;4984943;28;24429;-61
2021/12/04 08:12:13;;;;;;;8.90;8.00;;;;;;;;;;4981227;28;24453;-61
2021/12/04 08:14:39;;;;;;;11.32;10.32;;;;;;;;;;4983881;28;26116;-61
2021/12/04 08:17:04;;;;;;;13.95;12.55;;;;;;;;;;4986203;28;24979;-61
2021/12/04 08:19:29;;;;;;;11.50;10.40;;;;;;;;;;4982405;28;24547;-61
2021/12/04 08:21:54;;;;;;;12.00;10.80;;;;;;;;;;4981357;28;24416;-61
2021/12/04 08:24:19;;;;;;;11.03;9.93;;;;;;;;;;4993209;28;24455;-61
2021/12/04 08:26:46;;;;;;;10.73;9.77;;;;;;;;;;4983481;28;24545;-61
2021/12/04 08:29:12;;;;;;;10.40;9.50;;;;;;;;;;4998591;28;24850;-61
2021/12/04 08:31:37;;;;;;;12.13;10.93;;;;;;;;;;4988434;28;25065;-61
2021/12/04 08:34:02;;;;;;;10.10;9.20;;;;;;;;;;4978657;28;24417;-61
2021/12/04 08:36:28;;;;;;;8.90;8.10;;;;;;;;;;4977199;28;24423;-65
2021/12/04 08:38:53;;;;;;;9.20;8.40;;;;;;;;;;4976977;28;24815;-60
2021/12/04 08:41:18;;;;;;;8.53;7.83;;;;;;;;;;4989997;28;24467;-60
2021/12/04 08:43:44;;;;;;;8.70;8.00;;;;;;;;;;4980205;28;24835;-61
2021/12/04 08:46:10;;;;;;;8.13;7.43;;;;;;;;;;4980501;28;25026;-60
2021/12/04 08:48:35;;;;;;;8.87;8.07;;;;;;;;;;4979767;28;24745;-61
2021/12/04 08:51:01;;;;;;;7.60;6.95;;;;;;;;;;4983680;28;24864;-61
2021/12/04 08:53:26;;;;;;;8.52;7.72;;;;;;;;;;4984057;28;24479;-61
2021/12/04 08:55:52;;;;;;;7.70;7.10;;;;;;;;;;4982305;28;24475;-60
2021/12/04 08:58:17;;;;;;;7.85;7.15;;;;;;;;;;4984566;28;24445;-60
2021/12/04 09:00:49;;;;;;;7.10;6.50;;;;;;;;;;4982277;28;24466;-60
2021/12/04 09:03:15;;;;;;;7.32;6.72;;;;;;;;;;4984637;28;25014;-60
2021/12/04 09:05:40;;;;;;;6.20;5.70;;;;;;;;;;4980138;28;24449;-61
2021/12/04 09:08:06;;;;;;;6.90;6.30;;;;;;;;;;4977399;28;24846;-60
2021/12/04 09:10:31;;;;;;;6.20;5.70;;;;;;;;;;4977914;28;24491;-60
2021/12/04 09:12:56;;;;;;;6.17;5.67;;;;;;;;;;4981370;28;24420;-60
2021/12/04 09:15:23;;;;;;;6.20;5.70;;;;;;;;;;4984368;28;24513;-60
2021/12/04 09:17:49;;;;;;;6.10;5.60;;;;;;;;;;4980594;28;24994;-61
2021/12/04 09:20:16;;;;;;;5.03;4.70;;;;;;;;;;4980804;28;24417;-61
2021/12/04 09:22:42;;;;;;;5.65;5.15;;;;;;;;;;4977153;28;24648;-60
2021/12/04 09:25:14;;;;;;;5.00;4.70;;;;;;;;;;4985129;28;24512;-61
2021/12/04 09:28:01;;;;;;;5.20;4.80;;;;;;;;;;4981679;28;24496;-61
2021/12/04 10:03:15;;;;;;;5.13;4.78;;;;;;;;;;4981873;28;24999;-60
2021/12/04 10:06:07;;;;;;;5.95;5.47;;;;;;;;;;4987725;28;24950;-61
2021/12/04 10:11:49;;;;;;;5.90;5.40;;;;;;;;;;4977931;28;24416;-60
2021/12/04 10:14:49;;;;;;;5.35;4.85;;;;;;;;;;4997778;28;24496;-60
2021/12/04 10:19:59;;;;;;;5.80;5.30;;;;;;;;;;4985611;28;24773;-60
2021/12/04 10:22:46;;;;;;;5.20;4.80;;;;;;;;;;4988898;28;24419;-63
2021/12/04 10:33:36;;;;;;;5.50;5.10;;;;;;;;;;4980071;28;24443;-61
2021/12/04 10:36:03;;;;;;;5.40;4.90;;;;;;;;;;4994242;28;24416;-62
2021/12/04 10:38:32;;;;;;;5.40;5.00;;;;;;;;;;4997091;28;24488;-61
2021/12/04 10:40:57;;;;;;;6.47;4.70;;;;;;;;;;4979844;28;25214;-62
2021/12/04 10:43:24;;;;;;;5.33;4.83;;;;;;;;;;4977643;28;24457;-61
2021/12/04 10:45:52;;;;;;;5.90;5.30;;;;;;;;;;4965218;28;24442;-62
2021/12/04 10:48:21;;;;;;;5.20;4.80;;;;;;;;;;4984922;28;24951;-62
2021/12/04 10:53:37;;;;;;;4.90;4.50;;;;;;;;;;4981407;28;24472;-61
2021/12/04 11:01:53;;;;;;;6.70;6.20;;;;;;;;;;4999258;28;24408;-62
2021/12/04 11:24:11;;;;;;;5.10;4.70;;;;;;;;;;4983226;28;24467;-62
2021/12/04 11:26:49;;;;;;;5.10;4.70;;;;;;;;;;4989017;28;24404;-62
2021/12/04 11:34:59;;;;;;;5.18;4.78;;;;;;;;;;4982950;28;24460;-61
2021/12/04 11:40:01;;;;;;;4.57;4.18;;;;;;;;;;4978231;28;24423;-62
2021/12/04 11:42:42;;;;;;;4.93;4.53;;;;;;;;;;4989495;28;24435;-61
2021/12/04 11:45:16;;;;;;;5.07;4.68;;;;;;;;;;4984350;28;24526;-62
2021/12/04 11:47:43;;;;;;;4.95;4.55;;;;;;;;;;4980436;28;24579;-61
2021/12/04 11:50:22;;;;;;;6.10;5.50;;;;;;;;;;4980803;28;24424;-62
2021/12/04 11:52:48;;;;;;;5.70;5.20;;;;;;;;;;4981252;28;25065;-62
2021/12/04 11:55:14;;;;;;;6.18;5.57;;;;;;;;;;4996892;28;25065;-62
2021/12/04 11:57:39;;;;;;;6.53;5.97;;;;;;;;;;4990823;28;24444;-61
2021/12/04 12:03:12;;;;;;;7.70;7.00;;;;;;;;;;4980489;28;24455;-61
2021/12/04 12:10:45;;;;;;;9.20;8.30;;;;;;;;;;4994423;28;24468;-62
2021/12/04 12:13:17;;;;;;;8.00;7.20;;;;;;;;;;4997303;28;24528;-63
2021/12/04 12:15:42;;;;;;;8.95;8.05;;;;;;;;;;4998158;28;24992;-61
2021/12/04 12:18:15;;;;;;;9.80;8.90;;;;;;;;;;4998717;28;24794;-61
2021/12/04 12:20:54;;;;;;;10.07;9.18;;;;;;;;;;4999071;28;24408;-61
2021/12/04 12:23:23;;;;;;;9.87;8.93;;;;;;;;;;4998057;28;24519;-61
2021/12/04 12:26:04;;;;;;;10.68;9.68;;;;;;;;;;4997065;28;25130;-60
2021/12/04 12:37:17;;;;;;;9.20;8.30;;;;;;;;;;4989959;28;24467;-60
2021/12/04 12:39:59;;;;;;;9.02;8.23;;;;;;;;;;4998957;28;24746;-61
2021/12/04 12:42:25;;;;;;;9.65;8.77;;;;;;;;;;4998776;28;24409;-60
2021/12/04 12:44:51;;;;;;;9.30;8.40;;;;;;;;;;4988311;28;24435;-61
2021/12/04 12:47:16;;;;;;;9.60;8.80;;;;;;;;;;4994581;28;24456;-61
2021/12/04 12:49:43;;;;;;;10.50;9.50;;;;;;;;;;4989250;28;24483;-61
2021/12/04 12:52:20;;;;;;;11.00;10.00;;;;;;;;;;4985935;28;24439;-60
2021/12/04 12:54:50;;;;;;;11.43;10.32;;;;;;;;;;4992574;28;24481;-60
2021/12/04 12:57:20;;;;;;;12.45;11.25;;;;;;;;;;4992156;28;24463;-61
2021/12/04 13:13:27;;;;;;;12.17;11.07;;;;;;;;;;4997928;28;24427;-60
2021/12/04 13:15:54;;;;;;;12.90;11.65;;;;;;;;;;4992879;28;24423;-60
2021/12/04 13:18:23;;;;;;;14.00;12.60;;;;;;;;;;4992101;28;24522;-60
2021/12/04 13:20:50;;;;;;;12.20;11.10;;;;;;;;;;4995775;28;25015;-60
2021/12/04 13:23:17;;;;;;;14.15;12.80;;;;;;;;;;4994091;28;24566;-60
2021/12/04 13:25:49;;;;;;;12.50;11.40;;;;;;;;;;4996525;28;24413;-60
2021/12/04 13:28:18;;;;;;;13.65;12.35;;;;;;;;;;4994482;28;24431;-60
2021/12/04 13:30:44;;;;;;;12.68;11.57;;;;;;;;;;4998309;28;24424;-60
2021/12/04 13:33:09;;;;;;;13.02;11.82;;;;;;;;;;4993034;28;24494;-60
2021/12/04 13:35:35;;;;;;;14.15;12.75;;;;;;;;;;4997302;28;24498;-60
2021/12/04 13:38:06;;;;;;;13.70;12.40;;;;;;;;;;4995173;28;24459;-60
2021/12/04 13:40:32;;;;;;;13.27;11.88;;;;;;;;;;4992960;28;24419;-59
2021/12/04 13:42:57;;;;;;;12.50;11.30;;;;;;;;;;4998500;28;24941;-60
2021/12/04 13:45:22;;;;;;;12.80;11.60;;;;;;;;;;5005176;28;25016;-60
2021/12/04 13:47:52;;;;;;;11.20;10.00;;;;;;;;;;5005956;28;24582;-60
2021/12/04 13:53:19;;;;;;;10.32;9.32;;;;;;;;;;4986183;28;24490;-60
2021/12/04 13:55:48;;;;;;;10.57;9.57;;;;;;;;;;4994384;28;24420;-61
2021/12/04 13:58:14;;;;;;;10.60;9.60;;;;;;;;;;5000804;28;24432;-60
2021/12/04 14:00:39;;;;;;;11.30;10.30;;;;;;;;;;5000302;28;24470;-60
2021/12/04 14:03:04;;;;;;;11.50;10.50;;;;;;;;;;5000663;28;24473;-61
2021/12/04 14:05:29;;;;;;;11.32;10.23;;;;;;;;;;5001045;28;24440;-61
2021/12/04 14:07:56;;;;;;;11.90;10.70;;;;;;;;;;4986553;28;24425;-61
2021/12/04 14:10:22;;;;;;;11.82;10.73;;;;;;;;;;5004859;28;24794;-60
2021/12/04 14:12:48;;;;;;;11.20;10.20;;;;;;;;;;4995464;28;24410;-60
2021/12/04 14:15:15;;;;;;;11.40;10.30;;;;;;;;;;4999660;28;24439;-60
2021/12/04 14:17:40;;;;;;;11.80;10.70;;;;;;;;;;5005127;28;24473;-60
2021/12/04 14:20:06;;;;;;;13.03;11.73;;;;;;;;;;5002846;28;24719;-60
2021/12/04 14:22:31;;;;;;;11.90;10.90;;;;;;;;;;5001546;28;24416;-60
2021/12/04 14:24:59;;;;;;;12.97;11.77;;;;;;;;;;5001781;28;24420;-60
2021/12/04 14:27:30;;;;;;;12.77;11.57;;;;;;;;;;4998972;28;25404;-60
2021/12/04 14:29:58;;;;;;;12.35;11.15;;;;;;;;;;4999146;28;24575;-61
2021/12/04 14:32:26;;;;;;;12.40;11.30;;;;;;;;;;4999321;28;24432;-60
2021/12/04 14:34:59;;;;;;;13.40;12.10;;;;;;;;;;5002787;28;25029;-60
2021/12/04 14:37:24;;;;;;;13.73;12.52;;;;;;;;;;4994776;28;25105;-61
2021/12/04 14:39:50;;;;;;;13.27;12.07;;;;;;;;;;5000970;28;24574;-60
2021/12/04 14:42:19;;;;;;;12.93;11.73;;;;;;;;;;4999393;28;24575;-60
2021/12/04 14:44:52;;;;;;;13.80;12.60;;;;;;;;;;4994473;28;24424;-60
2021/12/04 14:47:18;;;;;;;14.00;12.70;;;;;;;;;;4992079;28;24420;-60
2021/12/04 14:49:44;;;;;;;13.77;12.50;;;;;;;;;;5001179;28;24448;-60
2021/12/04 14:52:16;;;;;;;13.63;12.43;;;;;;;;;;5001554;28;24439;-60
2021/12/04 14:54:42;;;;;;;14.05;12.70;;;;;;;;;;4997518;28;24516;-60
2021/12/04 14:57:15;;;;;;;13.10;11.90;;;;;;;;;;4991954;28;24552;-60
2021/12/04 14:59:40;;;;;;;15.13;13.73;;;;;;;;;;4990552;28;24420;-60
2021/12/04 15:02:16;;;;;;;12.60;11.50;;;;;;;;;;5002658;28;24486;-60
2021/12/04 15:04:41;;;;;;;13.80;12.50;;;;;;;;;;4999512;28;24488;-67
2021/12/04 15:07:16;;;;;;;15.00;13.60;;;;;;;;;;4988877;28;24918;-59
2021/12/04 15:09:41;;;;;;;14.30;13.00;;;;;;;;;;4996480;28;24429;-58
2021/12/04 15:12:06;;;;;;;14.97;13.57;;;;;;;;;;4997620;28;24478;-59
2021/12/04 15:14:32;;;;;;;14.60;13.30;;;;;;;;;;5001226;28;24972;-59
2021/12/04 15:17:04;;;;;;;15.27;13.97;;;;;;;;;;5002762;28;24417;-58
2021/12/04 15:19:44;;;;;;;15.07;13.68;;;;;;;;;;5000178;28;25014;-59
2021/12/04 15:22:18;;;;;;;15.20;13.82;;;;;;;;;;4998537;28;24829;-59
2021/12/04 15:24:44;;;;;;;15.68;14.18;;;;;;;;;;5002653;28;24407;-59
2021/12/04 15:27:15;;;;;;;16.35;14.77;;;;;;;;;;4999626;28;24500;-59
2021/12/04 15:29:43;;;;;;;16.83;15.20;;;;;;;;;;5002739;28;24478;-58
2021/12/04 15:32:11;;;;;;;15.02;13.63;;;;;;;;;;5001207;28;24417;-59
2021/12/04 15:34:42;;;;;;;15.82;14.30;;;;;;;;;;5003144;28;24424;-59
2021/12/04 15:37:08;;;;;;;16.10;14.60;;;;;;;;;;4999773;28;26123;-58
2021/12/04 15:39:36;;;;;;;15.60;14.20;;;;;;;;;;4999688;28;24528;-59
2021/12/04 15:42:24;;;;;;;15.80;14.30;;;;;;;;;;5001307;28;24417;-59
2021/12/04 15:44:59;;;;;;;16.20;14.60;;;;;;;;;;4984392;28;25057;-59
2021/12/04 15:47:45;;;;;;;15.63;14.23;;;;;;;;;;4989878;28;24421;-59
2021/12/04 15:53:07;;;;;;;13.65;12.25;;;;;;;;;;5000990;28;24427;-59
2021/12/04 15:55:37;;;;;;;14.93;13.20;;;;;;;;;;5003768;28;24817;-58
2021/12/04 15:58:13;;;;;;;14.00;12.60;;;;;;;;;;5001068;28;24543;-59
2021/12/04 16:00:40;;;;;;;14.32;12.88;;;;;;;;;;4997739;28;24405;-59
2021/12/04 16:03:10;;;;;;;13.98;12.57;;;;;;;;;;5000513;28;24437;-59
2021/12/04 16:05:38;;;;;;;13.70;12.40;;;;;;;;;;5003372;28;24400;-58
2021/12/04 16:08:08;;;;;;;13.57;12.20;;;;;;;;;;5000679;28;24485;-59
2021/12/04 16:10:34;;;;;;;13.15;11.85;;;;;;;;;;5011510;28;24471;-59
2021/12/04 16:13:00;;;;;;;13.73;12.37;;;;;;;;;;4998967;28;24822;-59
2021/12/04 16:15:25;;;;;;;14.20;12.80;;;;;;;;;;4999261;28;25004;-59
2021/12/04 16:17:51;;;;;;;13.90;12.50;;;;;;;;;;5003544;28;24498;-59
2021/12/04 16:20:18;;;;;;;14.97;13.37;;;;;;;;;;5000643;28;24844;-59
2021/12/04 16:22:45;;;;;;;13.70;12.40;;;;;;;;;;4998791;28;24421;-59
2021/12/04 16:25:10;;;;;;;13.07;11.68;;;;;;;;;;5001185;28;24827;-59
2021/12/04 16:27:47;;;;;;;12.70;11.40;;;;;;;;;;5002961;28;24972;-59
2021/12/04 16:30:27;;;;;;;13.77;12.38;;;;;;;;;;5000637;28;24957;-59
2021/12/04 16:36:08;;;;;;;16.33;14.63;;;;;;;;;;4998719;28;24486;-56
2021/12/04 16:38:13;;;;;;;15.40;13.82;;;;;;;;;;4969910;28;24428;-56
2021/12/04 16:40:40;;;;;;;15.65;13.95;;;;;;;;;;5000264;28;24508;-59
2021/12/04 16:43:11;;;;;;;16.30;14.20;;;;;;;;;;4999186;28;24774;-60
2021/12/04 16:45:37;;;;;;;15.55;13.85;;;;;;;;;;5001602;28;25053;-60
2021/12/04 16:48:07;;;;;;;15.90;14.30;;;;;;;;;;4999796;28;24583;-60
2021/12/04 16:58:23;;;;;;;15.80;14.10;;;;;;;;;;5000155;28;24432;-60
2021/12/04 17:00:50;;;;;;;16.77;14.80;;;;;;;;;;5001800;28;24409;-60
2021/12/04 17:03:16;;;;;;;14.45;12.95;;;;;;;;;;4999819;28;24459;-60
2021/12/04 17:05:42;;;;;;;14.83;13.33;;;;;;;;;;5001817;28;24451;-60
2021/12/04 17:08:08;;;;;;;14.90;13.40;;;;;;;;;;5000613;28;24407;-58
2021/12/04 17:10:34;;;;;;;13.98;12.30;;;;;;;;;;4999480;28;24440;-58
2021/12/04 17:12:59;;;;;;;14.60;13.20;;;;;;;;;;5000225;28;24404;-58
2021/12/04 17:15:24;;;;;;;14.40;12.90;;;;;;;;;;4999902;28;24504;-58
2021/12/04 17:17:50;;;;;;;15.00;13.50;;;;;;;;;;5001582;28;24432;-58
2021/12/04 17:20:18;;;;;;;15.30;13.70;;;;;;;;;;4999555;28;24420;-58
2021/12/04 17:22:43;;;;;;;18.10;16.20;;;;;;;;;;5000467;28;24535;-59
2021/12/04 17:25:09;;;;;;;15.90;14.20;;;;;;;;;;4997948;28;24582;-59
2021/12/04 17:27:34;;;;;;;15.10;13.60;;;;;;;;;;5001337;28;24455;-58
2021/12/04 17:29:59;;;;;;;13.67;12.37;;;;;;;;;;4999907;28;24413;-58
2021/12/04 17:32:24;;;;;;;14.90;13.30;;;;;;;;;;4999628;28;24805;-58
2021/12/04 17:34:50;;;;;;;14.93;13.40;;;;;;;;;;5001159;28;24614;-58
2021/12/04 17:37:16;;;;;;;14.70;13.07;;;;;;;;;;4998743;28;24452;-59
2021/12/04 17:39:41;;;;;;;14.80;13.30;;;;;;;;;;5001364;28;25017;-58
2021/12/04 17:42:07;;;;;;;15.33;13.70;;;;;;;;;;4998041;28;24470;-57
2021/12/04 17:44:32;;;;;;;16.10;14.40;;;;;;;;;;4997969;28;24503;-58